sensor_id;sensor_type;location;lat;lon;timestamp;pressure;altitude;pressure_sealevel;temperature;humidity
18858;BME280;9558;50.178;8.370;2023-04-09T00:02:29;99038.59;;;7.32;98.43
18858;BME280;9558;50.178;8.370;2023-04-09T00:05:17;99035.88;;;7.34;97.68
18858;BME280;9558;50.178;8.370;2023-04-09T00:08:04;99035.22;;;7.32;97.85
18858;BME280;9558;50.178;8.370;2023-04-09T00:10:51;99033.72;;;7.29;97.68
18858;BME280;9558;50.178;8.370;2023-04-09T00:13:39;99027.88;;;7.27;97.82
18858;BME280;9558;50.178;8.370;2023-04-09T00:16:25;99035.72;;;7.25;98.12
18858;BME280;9558;50.178;8.370;2023-04-09T00:19:12;99031.66;;;7.23;98.34
18858;BME280;9558;50.178;8.370;2023-04-09T00:22:00;99033.28;;;7.24;98.39
18858;BME280;9558;50.178;8.370;2023-04-09T00:24:49;99030.06;;;7.22;98.42
18858;BME280;9558;50.178;8.370;2023-04-09T00:27:35;99027.59;;;7.20;98.56
18858;BME280;9558;50.178;8.370;2023-04-09T00:30:22;99024.47;;;7.17;98.72
18858;BME280;9558;50.178;8.370;2023-04-09T00:33:09;99021.75;;;7.18;99.04
18858;BME280;9558;50.178;8.370;2023-04-09T00:35:55;99017.00;;;7.14;98.84
18858;BME280;9558;50.178;8.370;2023-04-09T00:38:43;99017.00;;;7.14;98.84
18858;BME280;9558;50.178;8.370;2023-04-09T00:41:31;99009.56;;;7.11;98.82
18858;BME280;9558;50.178;8.370;2023-04-09T00:44:17;99019.16;;;7.08;99.20
18858;BME280;9558;50.178;8.370;2023-04-09T00:47:04;99014.00;;;7.08;99.63
18858;BME280;9558;50.178;8.370;2023-04-09T00:49:51;99022.94;;;7.04;99.43
18858;BME280;9558;50.178;8.370;2023-04-09T00:52:37;99017.38;;;6.99;99.96
18858;BME280;9558;50.178;8.370;2023-04-09T00:55:26;99019.97;;;6.99;99.58
18858;BME280;9558;50.178;8.370;2023-04-09T00:58:13;99022.94;;;6.95;100.00
18858;BME280;9558;50.178;8.370;2023-04-09T01:01:00;99018.03;;;6.91;99.90
18858;BME280;9558;50.178;8.370;2023-04-09T01:03:47;99013.97;;;6.89;99.97
18858;BME280;9558;50.178;8.370;2023-04-09T01:06:39;99021.81;;;6.87;100.00
18858;BME280;9558;50.178;8.370;2023-04-09T01:09:32;99015.84;;;6.87;100.00
18858;BME280;9558;50.178;8.370;2023-04-09T01:12:32;99010.44;;;6.80;100.00
18858;BME280;9558;50.178;8.370;2023-04-09T01:15:24;99009.84;;;6.77;100.00
18858;BME280;9558;50.178;8.370;2023-04-09T01:18:19;99016.91;;;6.74;100.00
18858;BME280;9558;50.178;8.370;2023-04-09T01:21:11;99013.09;;;6.69;100.00
18858;BME280;9558;50.178;8.370;2023-04-09T01:24:08;99019.31;;;6.66;100.00
18858;BME280;9558;50.178;8.370;2023-04-09T01:27:04;99016.28;;;6.61;100.00
18858;BME280;9558;50.178;8.370;2023-04-09T01:29:53;99006.25;;;6.58;100.00
18858;BME280;9558;50.178;8.370;2023-04-09T01:32:41;99006.53;;;6.55;100.00
18858;BME280;9558;50.178;8.370;2023-04-09T01:35:28;99008.16;;;6.56;100.00
18858;BME280;9558;50.178;8.370;2023-04-09T01:38:17;99012.19;;;6.49;100.00
18858;BME280;9558;50.178;8.370;2023-04-09T01:41:05;99011.63;;;6.45;100.00
18858;BME280;9558;50.178;8.370;2023-04-09T01:43:54;99012.41;;;6.46;100.00
18858;BME280;9558;50.178;8.370;2023-04-09T01:46:42;99014.84;;;6.37;100.00
18858;BME280;9558;50.178;8.370;2023-04-09T01:49:29;99011.56;;;6.35;100.00
18858;BME280;9558;50.178;8.370;2023-04-09T01:52:16;99007.75;;;6.30;100.00
18858;BME280;9558;50.178;8.370;2023-04-09T01:55:03;99013.28;;;6.25;100.00
18858;BME280;9558;50.178;8.370;2023-04-09T01:57:50;99007.69;;;6.20;100.00
18858;BME280;9558;50.178;8.370;2023-04-09T02:00:38;99014.84;;;6.16;100.00
18858;BME280;9558;50.178;8.370;2023-04-09T02:03:31;99008.56;;;6.09;100.00
18858;BME280;9558;50.178;8.370;2023-04-09T02:06:24;99011.28;;;6.08;100.00
18858;BME280;9558;50.178;8.370;2023-04-09T02:09:17;99018.41;;;6.04;100.00
18858;BME280;9558;50.178;8.370;2023-04-09T02:12:10;99015.41;;;5.99;100.00
18858;BME280;9558;50.178;8.370;2023-04-09T02:14:59;99014.56;;;5.98;100.00
18858;BME280;9558;50.178;8.370;2023-04-09T02:17:46;99016.69;;;5.93;100.00
18858;BME280;9558;50.178;8.370;2023-04-09T02:20:35;99024.53;;;5.92;100.00
18858;BME280;9558;50.178;8.370;2023-04-09T02:23:21;99018.22;;;5.84;100.00
18858;BME280;9558;50.178;8.370;2023-04-09T02:26:08;99027.28;;;5.79;100.00
18858;BME280;9558;50.178;8.370;2023-04-09T02:28:55;99022.47;;;5.74;100.00
18858;BME280;9558;50.178;8.370;2023-04-09T02:31:41;99019.47;;;5.69;100.00
18858;BME280;9558;50.178;8.370;2023-04-09T02:34:29;99019.16;;;5.62;100.00
18858;BME280;9558;50.178;8.370;2023-04-09T02:37:17;99023.13;;;5.55;100.00
18858;BME280;9558;50.178;8.370;2023-04-09T02:40:04;99021.19;;;5.47;100.00
18858;BME280;9558;50.178;8.370;2023-04-09T02:42:51;99017.81;;;5.35;100.00
18858;BME280;9558;50.178;8.370;2023-04-09T02:45:38;99015.88;;;5.28;100.00
18858;BME280;9558;50.178;8.370;2023-04-09T02:48:25;99013.19;;;5.18;100.00
18858;BME280;9558;50.178;8.370;2023-04-09T02:51:12;99014.59;;;5.11;100.00
18858;BME280;9558;50.178;8.370;2023-04-09T02:54:00;99019.38;;;5.04;100.00
18858;BME280;9558;50.178;8.370;2023-04-09T02:56:46;99015.78;;;4.95;100.00
18858;BME280;9558;50.178;8.370;2023-04-09T02:59:33;99019.75;;;4.88;100.00
18858;BME280;9558;50.178;8.370;2023-04-09T03:02:20;99011.63;;;4.83;100.00
18858;BME280;9558;50.178;8.370;2023-04-09T03:05:07;99010.66;;;4.73;100.00
18858;BME280;9558;50.178;8.370;2023-04-09T03:07:54;99008.09;;;4.61;100.00
18858;BME280;9558;50.178;8.370;2023-04-09T03:10:42;99010.34;;;4.55;100.00
18858;BME280;9558;50.178;8.370;2023-04-09T03:13:29;99003.19;;;4.47;100.00
18858;BME280;9558;50.178;8.370;2023-04-09T03:16:16;99002.25;;;4.37;100.00
18858;BME280;9558;50.178;8.370;2023-04-09T03:19:02;99004.34;;;4.31;100.00
18858;BME280;9558;50.178;8.370;2023-04-09T03:21:49;98995.41;;;4.26;100.00
18858;BME280;9558;50.178;8.370;2023-04-09T03:24:36;98993.63;;;4.15;100.00
18858;BME280;9558;50.178;8.370;2023-04-09T03:27:24;98994.06;;;4.09;100.00
18858;BME280;9558;50.178;8.370;2023-04-09T03:30:11;98993.59;;;4.04;100.00
18858;BME280;9558;50.178;8.370;2023-04-09T03:32:58;98995.66;;;3.98;100.00
18858;BME280;9558;50.178;8.370;2023-04-09T03:35:44;98994.28;;;3.94;100.00
18858;BME280;9558;50.178;8.370;2023-04-09T03:38:31;98991.22;;;3.89;100.00
18858;BME280;9558;50.178;8.370;2023-04-09T03:41:18;98989.81;;;3.85;100.00
18858;BME280;9558;50.178;8.370;2023-04-09T03:44:06;98986.19;;;3.76;100.00
18858;BME280;9558;50.178;8.370;2023-04-09T03:46:53;98978.00;;;3.71;100.00
18858;BME280;9558;50.178;8.370;2023-04-09T03:49:40;98988.47;;;3.68;100.00
18858;BME280;9558;50.178;8.370;2023-04-09T03:52:26;98993.00;;;3.65;100.00
18858;BME280;9558;50.178;8.370;2023-04-09T03:55:13;98981.78;;;3.54;100.00
18858;BME280;9558;50.178;8.370;2023-04-09T03:58:00;98983.03;;;3.49;100.00
18858;BME280;9558;50.178;8.370;2023-04-09T04:00:48;98985.94;;;3.44;100.00
18858;BME280;9558;50.178;8.370;2023-04-09T04:03:35;98986.38;;;3.38;100.00
18858;BME280;9558;50.178;8.370;2023-04-09T04:06:22;98984.03;;;3.35;100.00
18858;BME280;9558;50.178;8.370;2023-04-09T04:09:08;98977.63;;;3.29;100.00
18858;BME280;9558;50.178;8.370;2023-04-09T04:11:55;98983.88;;;3.25;100.00
18858;BME280;9558;50.178;8.370;2023-04-09T04:14:43;98983.25;;;3.21;100.00
18858;BME280;9558;50.178;8.370;2023-04-09T04:17:31;98987.88;;;3.16;100.00
18858;BME280;9558;50.178;8.370;2023-04-09T04:20:18;98984.25;;;3.07;100.00
18858;BME280;9558;50.178;8.370;2023-04-09T04:23:04;98996.41;;;3.04;100.00
18858;BME280;9558;50.178;8.370;2023-04-09T04:25:51;98989.88;;;3.00;100.00
18858;BME280;9558;50.178;8.370;2023-04-09T04:28:39;98996.72;;;2.99;100.00
18858;BME280;9558;50.178;8.370;2023-04-09T04:31:25;98986.84;;;2.94;100.00
18858;BME280;9558;50.178;8.370;2023-04-09T04:34:13;98995.41;;;2.93;100.00
18858;BME280;9558;50.178;8.370;2023-04-09T04:37:01;98993.06;;;2.90;100.00
18858;BME280;9558;50.178;8.370;2023-04-09T04:39:47;99002.78;;;2.85;100.00
18858;BME280;9558;50.178;8.370;2023-04-09T04:42:34;99002.91;;;2.84;100.00
18858;BME280;9558;50.178;8.370;2023-04-09T04:45:21;99003.91;;;2.81;100.00
18858;BME280;9558;50.178;8.370;2023-04-09T04:48:08;98999.81;;;2.79;100.00
18858;BME280;9558;50.178;8.370;2023-04-09T04:50:56;99002.69;;;2.74;100.00
18858;BME280;9558;50.178;8.370;2023-04-09T04:53:44;99012.34;;;2.70;100.00
18858;BME280;9558;50.178;8.370;2023-04-09T04:56:30;99015.00;;;2.69;100.00
18858;BME280;9558;50.178;8.370;2023-04-09T04:59:17;99005.69;;;2.68;100.00
18858;BME280;9558;50.178;8.370;2023-04-09T05:02:04;99006.00;;;2.63;100.00
18858;BME280;9558;50.178;8.370;2023-04-09T05:04:50;99002.72;;;2.61;100.00
18858;BME280;9558;50.178;8.370;2023-04-09T05:07:39;99007.03;;;2.61;100.00
18858;BME280;9558;50.178;8.370;2023-04-09T05:10:25;99005.47;;;2.58;100.00
18858;BME280;9558;50.178;8.370;2023-04-09T05:13:12;99009.78;;;2.57;100.00
18858;BME280;9558;50.178;8.370;2023-04-09T05:15:59;99004.97;;;2.53;100.00
18858;BME280;9558;50.178;8.370;2023-04-09T05:18:46;99004.88;;;2.54;100.00
18858;BME280;9558;50.178;8.370;2023-04-09T05:21:32;99010.91;;;2.53;100.00
18858;BME280;9558;50.178;8.370;2023-04-09T05:24:21;99013.56;;;2.52;100.00
18858;BME280;9558;50.178;8.370;2023-04-09T05:27:07;99006.59;;;2.54;100.00
18858;BME280;9558;50.178;8.370;2023-04-09T05:29:54;99013.25;;;2.56;100.00
18858;BME280;9558;50.178;8.370;2023-04-09T05:32:41;99012.34;;;2.57;100.00
18858;BME280;9558;50.178;8.370;2023-04-09T05:35:28;99002.13;;;2.57;100.00
18858;BME280;9558;50.178;8.370;2023-04-09T05:38:15;99011.91;;;2.64;100.00
18858;BME280;9558;50.178;8.370;2023-04-09T05:41:03;99011.00;;;2.65;100.00
18858;BME280;9558;50.178;8.370;2023-04-09T05:43:50;99011.50;;;2.70;100.00
18858;BME280;9558;50.178;8.370;2023-04-09T05:46:36;99006.38;;;2.70;100.00
18858;BME280;9558;50.178;8.370;2023-04-09T05:49:23;99009.25;;;2.78;100.00
18858;BME280;9558;50.178;8.370;2023-04-09T05:52:10;99006.47;;;2.81;100.00
18858;BME280;9558;50.178;8.370;2023-04-09T05:54:57;99016.38;;;2.86;100.00
18858;BME280;9558;50.178;8.370;2023-04-09T05:57:45;99013.53;;;2.90;100.00
18858;BME280;9558;50.178;8.370;2023-04-09T06:00:32;99010.53;;;2.97;100.00
18858;BME280;9558;50.178;8.370;2023-04-09T06:03:19;99014.31;;;3.04;100.00
18858;BME280;9558;50.178;8.370;2023-04-09T06:06:05;99012.97;;;3.11;100.00
18858;BME280;9558;50.178;8.370;2023-04-09T06:08:52;99009.38;;;3.14;100.00
18858;BME280;9558;50.178;8.370;2023-04-09T06:11:39;99011.28;;;3.23;100.00
18858;BME280;9558;50.178;8.370;2023-04-09T06:14:27;99009.34;;;3.26;100.00
18858;BME280;9558;50.178;8.370;2023-04-09T06:17:14;99006.84;;;3.38;100.00
18858;BME280;9558;50.178;8.370;2023-04-09T06:20:01;99012.94;;;3.48;100.00
18858;BME280;9558;50.178;8.370;2023-04-09T06:22:48;99013.00;;;3.59;100.00
18858;BME280;9558;50.178;8.370;2023-04-09T06:25:35;99017.53;;;3.67;100.00
18858;BME280;9558;50.178;8.370;2023-04-09T06:28:21;99019.13;;;3.81;100.00
18858;BME280;9558;50.178;8.370;2023-04-09T06:31:10;99021.28;;;3.98;100.00
18858;BME280;9558;50.178;8.370;2023-04-09T06:33:56;99018.31;;;4.16;100.00
18858;BME280;9558;50.178;8.370;2023-04-09T06:36:43;99018.94;;;4.42;100.00
18858;BME280;9558;50.178;8.370;2023-04-09T06:39:30;99021.03;;;4.71;100.00
18858;BME280;9558;50.178;8.370;2023-04-09T06:42:17;99027.44;;;4.88;100.00
18858;BME280;9558;50.178;8.370;2023-04-09T06:45:05;99033.19;;;5.03;100.00
18858;BME280;9558;50.178;8.370;2023-04-09T06:47:54;99035.00;;;5.12;100.00
18858;BME280;9558;50.178;8.370;2023-04-09T06:50:41;99041.06;;;5.23;100.00
18858;BME280;9558;50.178;8.370;2023-04-09T06:53:28;99037.53;;;5.46;100.00
18858;BME280;9558;50.178;8.370;2023-04-09T06:56:15;99042.97;;;5.85;100.00
18858;BME280;9558;50.178;8.370;2023-04-09T06:59:01;99028.03;;;6.23;100.00
18858;BME280;9558;50.178;8.370;2023-04-09T07:01:48;99039.31;;;6.63;100.00
18858;BME280;9558;50.178;8.370;2023-04-09T07:04:36;99034.66;;;7.28;100.00
18858;BME280;9558;50.178;8.370;2023-04-09T07:07:23;99037.13;;;8.18;96.52
18858;BME280;9558;50.178;8.370;2023-04-09T07:10:10;99036.34;;;9.02;93.87
18858;BME280;9558;50.178;8.370;2023-04-09T07:12:57;99043.66;;;9.89;89.71
18858;BME280;9558;50.178;8.370;2023-04-09T07:15:43;99038.16;;;10.80;87.53
18858;BME280;9558;50.178;8.370;2023-04-09T07:18:30;99046.16;;;11.63;80.75
18858;BME280;9558;50.178;8.370;2023-04-09T07:21:18;99045.22;;;12.30;77.76
18858;BME280;9558;50.178;8.370;2023-04-09T07:24:05;99050.91;;;12.98;78.44
18858;BME280;9558;50.178;8.370;2023-04-09T07:26:52;99049.56;;;13.64;72.34
18858;BME280;9558;50.178;8.370;2023-04-09T07:29:42;99057.47;;;14.17;69.14
18858;BME280;9558;50.178;8.370;2023-04-09T07:32:30;99050.63;;;14.84;68.42
18858;BME280;9558;50.178;8.370;2023-04-09T07:35:16;99049.81;;;15.50;67.10
18858;BME280;9558;50.178;8.370;2023-04-09T07:38:05;99050.31;;;16.04;63.30
18858;BME280;9558;50.178;8.370;2023-04-09T07:40:52;99055.41;;;16.40;60.62
18858;BME280;9558;50.178;8.370;2023-04-09T07:43:39;99054.97;;;17.07;56.78
18858;BME280;9558;50.178;8.370;2023-04-09T07:46:26;99059.66;;;17.25;55.96
18858;BME280;9558;50.178;8.370;2023-04-09T07:49:13;99058.03;;;16.82;57.02
18858;BME280;9558;50.178;8.370;2023-04-09T07:52:00;99071.22;;;16.67;55.67
18858;BME280;9558;50.178;8.370;2023-04-09T07:54:49;99059.09;;;16.24;56.44
18858;BME280;9558;50.178;8.370;2023-04-09T07:57:36;99059.69;;;15.77;57.33
18858;BME280;9558;50.178;8.370;2023-04-09T08:00:23;99060.25;;;15.35;58.32
18858;BME280;9558;50.178;8.370;2023-04-09T08:03:09;99051.50;;;15.07;58.61
18858;BME280;9558;50.178;8.370;2023-04-09T08:05:57;99058.69;;;14.60;57.35
18858;BME280;9558;50.178;8.370;2023-04-09T08:08:43;99063.25;;;14.28;59.18
18858;BME280;9558;50.178;8.370;2023-04-09T08:11:32;99060.66;;;14.43;59.87
18858;BME280;9558;50.178;8.370;2023-04-09T08:14:18;99064.09;;;14.20;57.40
18858;BME280;9558;50.178;8.370;2023-04-09T08:17:05;99061.63;;;14.42;57.91
18858;BME280;9558;50.178;8.370;2023-04-09T08:19:52;99066.16;;;14.48;60.15
18858;BME280;9558;50.178;8.370;2023-04-09T08:22:39;99065.50;;;14.31;58.80
18858;BME280;9558;50.178;8.370;2023-04-09T08:25:26;99059.69;;;14.06;59.95
18858;BME280;9558;50.178;8.370;2023-04-09T08:28:14;99068.31;;;13.83;60.76
18858;BME280;9558;50.178;8.370;2023-04-09T08:31:01;99065.66;;;13.68;59.32
18858;BME280;9558;50.178;8.370;2023-04-09T08:33:48;99071.56;;;13.62;60.12
18858;BME280;9558;50.178;8.370;2023-04-09T08:36:34;99065.66;;;13.45;61.01
18858;BME280;9558;50.178;8.370;2023-04-09T08:39:21;99067.31;;;13.29;61.76
18858;BME280;9558;50.178;8.370;2023-04-09T08:42:08;99077.53;;;13.39;62.85
18858;BME280;9558;50.178;8.370;2023-04-09T08:44:58;99084.81;;;13.44;61.82
18858;BME280;9558;50.178;8.370;2023-04-09T08:47:47;99085.56;;;13.53;61.38
18858;BME280;9558;50.178;8.370;2023-04-09T08:50:33;99082.00;;;13.54;61.32
18858;BME280;9558;50.178;8.370;2023-04-09T08:53:20;99088.13;;;13.61;63.14
18858;BME280;9558;50.178;8.370;2023-04-09T08:56:08;99080.84;;;13.56;61.98
18858;BME280;9558;50.178;8.370;2023-04-09T08:58:55;99081.97;;;13.62;61.38
18858;BME280;9558;50.178;8.370;2023-04-09T09:01:43;99081.25;;;13.91;61.21
18858;BME280;9558;50.178;8.370;2023-04-09T09:04:42;99090.41;;;13.87;60.42
18858;BME280;9558;50.178;8.370;2023-04-09T09:07:30;99080.09;;;13.94;61.43
18858;BME280;9558;50.178;8.370;2023-04-09T09:10:17;99078.47;;;14.16;61.59
18858;BME280;9558;50.178;8.370;2023-04-09T09:13:18;99076.69;;;14.31;61.12
18858;BME280;9558;50.178;8.370;2023-04-09T09:16:14;99095.41;;;14.50;59.82
18858;BME280;9558;50.178;8.370;2023-04-09T09:19:03;99088.03;;;14.39;59.23
18858;BME280;9558;50.178;8.370;2023-04-09T09:21:54;99078.41;;;14.24;59.98
18858;BME280;9558;50.178;8.370;2023-04-09T09:24:45;99082.41;;;14.12;59.35
18858;BME280;9558;50.178;8.370;2023-04-09T09:27:34;99080.78;;;14.11;60.28
18858;BME280;9558;50.178;8.370;2023-04-09T09:30:25;99081.84;;;14.02;60.50
18858;BME280;9558;50.178;8.370;2023-04-09T09:33:12;99079.63;;;13.90;60.79
18858;BME280;9558;50.178;8.370;2023-04-09T09:36:00;99079.88;;;13.80;60.75
18858;BME280;9558;50.178;8.370;2023-04-09T09:38:52;99078.88;;;13.58;60.31
18858;BME280;9558;50.178;8.370;2023-04-09T09:41:40;99084.13;;;13.50;60.34
18858;BME280;9558;50.178;8.370;2023-04-09T09:44:31;99082.25;;;13.36;60.12
18858;BME280;9558;50.178;8.370;2023-04-09T09:47:19;99087.44;;;13.27;61.10
18858;BME280;9558;50.178;8.370;2023-04-09T09:50:07;99087.97;;;13.23;61.40
18858;BME280;9558;50.178;8.370;2023-04-09T09:53:00;99077.78;;;13.13;61.85
18858;BME280;9558;50.178;8.370;2023-04-09T09:55:48;99073.25;;;13.07;61.32
18858;BME280;9558;50.178;8.370;2023-04-09T09:58:41;99074.66;;;12.86;62.52
18858;BME280;9558;50.178;8.370;2023-04-09T10:01:29;99071.41;;;12.76;64.19
18858;BME280;9558;50.178;8.370;2023-04-09T10:04:17;99056.16;;;12.73;64.25
18858;BME280;9558;50.178;8.370;2023-04-09T10:07:05;99060.56;;;12.72;65.27
18858;BME280;9558;50.178;8.370;2023-04-09T10:09:55;99054.69;;;12.78;61.75
18858;BME280;9558;50.178;8.370;2023-04-09T10:12:43;99048.84;;;12.85;63.74
18858;BME280;9558;50.178;8.370;2023-04-09T10:15:31;99047.44;;;13.05;64.40
18858;BME280;9558;50.178;8.370;2023-04-09T10:18:18;99046.41;;;13.14;63.52
18858;BME280;9558;50.178;8.370;2023-04-09T10:21:08;99058.06;;;13.27;62.59
18858;BME280;9558;50.178;8.370;2023-04-09T10:24:00;99061.59;;;13.42;62.77
18858;BME280;9558;50.178;8.370;2023-04-09T10:26:53;99061.25;;;13.45;61.02
18858;BME280;9558;50.178;8.370;2023-04-09T10:29:42;99051.97;;;13.43;58.43
18858;BME280;9558;50.178;8.370;2023-04-09T10:32:34;99056.34;;;13.51;60.49
18858;BME280;9558;50.178;8.370;2023-04-09T10:35:24;99055.06;;;13.46;60.57
18858;BME280;9558;50.178;8.370;2023-04-09T10:38:13;99045.19;;;13.34;59.26
18858;BME280;9558;50.178;8.370;2023-04-09T10:41:06;99046.19;;;13.24;59.20
18858;BME280;9558;50.178;8.370;2023-04-09T10:43:56;99050.59;;;13.24;59.70
18858;BME280;9558;50.178;8.370;2023-04-09T10:46:44;99054.34;;;13.21;59.00
18858;BME280;9558;50.178;8.370;2023-04-09T10:49:35;99053.22;;;13.24;60.11
18858;BME280;9558;50.178;8.370;2023-04-09T10:52:28;99047.22;;;13.23;60.24
18858;BME280;9558;50.178;8.370;2023-04-09T10:55:35;99050.38;;;13.42;60.97
18858;BME280;9558;50.178;8.370;2023-04-09T10:58:22;99045.41;;;13.55;61.08
18858;BME280;9558;50.178;8.370;2023-04-09T11:01:20;99039.16;;;13.64;61.13
18858;BME280;9558;50.178;8.370;2023-04-09T11:04:10;99031.78;;;13.76;61.20
18858;BME280;9558;50.178;8.370;2023-04-09T11:07:02;99047.78;;;13.88;59.22
18858;BME280;9558;50.178;8.370;2023-04-09T11:09:50;99057.91;;;13.83;56.85
18858;BME280;9558;50.178;8.370;2023-04-09T11:12:37;99058.81;;;13.67;56.56
18858;BME280;9558;50.178;8.370;2023-04-09T11:15:24;99051.94;;;13.51;56.04
18858;BME280;9558;50.178;8.370;2023-04-09T11:18:18;99053.25;;;13.47;56.99
18858;BME280;9558;50.178;8.370;2023-04-09T11:21:08;99050.00;;;13.53;56.63
18858;BME280;9558;50.178;8.370;2023-04-09T11:23:56;99046.22;;;13.56;54.70
18858;BME280;9558;50.178;8.370;2023-04-09T11:26:43;99042.19;;;13.53;55.21
18858;BME280;9558;50.178;8.370;2023-04-09T11:29:33;99035.38;;;13.52;55.03
18858;BME280;9558;50.178;8.370;2023-04-09T11:32:20;99034.66;;;13.58;55.37
18858;BME280;9558;50.178;8.370;2023-04-09T11:35:11;99026.00;;;13.66;53.58
18858;BME280;9558;50.178;8.370;2023-04-09T11:37:58;99034.88;;;13.72;51.56
18858;BME280;9558;50.178;8.370;2023-04-09T11:40:45;99034.63;;;13.67;51.80
18858;BME280;9558;50.178;8.370;2023-04-09T11:43:35;99036.66;;;13.56;51.52
18858;BME280;9558;50.178;8.370;2023-04-09T11:46:22;99032.47;;;13.47;53.50
18858;BME280;9558;50.178;8.370;2023-04-09T11:49:10;99032.63;;;13.45;52.92
18858;BME280;9558;50.178;8.370;2023-04-09T11:51:59;99040.91;;;13.49;53.70
18858;BME280;9558;50.178;8.370;2023-04-09T11:54:48;99039.41;;;13.55;54.19
18858;BME280;9558;50.178;8.370;2023-04-09T11:57:37;99038.13;;;13.51;53.54
18858;BME280;9558;50.178;8.370;2023-04-09T12:00:24;99035.72;;;13.49;54.54
18858;BME280;9558;50.178;8.370;2023-04-09T12:03:12;99038.59;;;13.54;55.14
18858;BME280;9558;50.178;8.370;2023-04-09T12:06:01;99034.31;;;13.61;54.99
18858;BME280;9558;50.178;8.370;2023-04-09T12:08:52;99031.66;;;13.70;54.37
18858;BME280;9558;50.178;8.370;2023-04-09T12:11:42;99033.91;;;13.73;53.57
18858;BME280;9558;50.178;8.370;2023-04-09T12:14:29;99029.34;;;13.75;53.11
18858;BME280;9558;50.178;8.370;2023-04-09T12:17:19;99031.38;;;13.88;53.25
18858;BME280;9558;50.178;8.370;2023-04-09T12:20:06;99034.41;;;13.91;52.75
18858;BME280;9558;50.178;8.370;2023-04-09T12:22:54;99025.34;;;13.87;53.30
18858;BME280;9558;50.178;8.370;2023-04-09T12:25:43;99029.03;;;13.93;53.79
18858;BME280;9558;50.178;8.370;2023-04-09T12:28:31;99022.06;;;13.93;53.86
18858;BME280;9558;50.178;8.370;2023-04-09T12:31:18;99024.50;;;13.95;53.86
18858;BME280;9558;50.178;8.370;2023-04-09T12:34:05;99022.97;;;14.00;54.87
18858;BME280;9558;50.178;8.370;2023-04-09T12:36:52;99024.56;;;14.02;52.10
18858;BME280;9558;50.178;8.370;2023-04-09T12:39:38;99015.59;;;13.89;53.67
18858;BME280;9558;50.178;8.370;2023-04-09T12:42:26;99009.06;;;13.93;53.31
18858;BME280;9558;50.178;8.370;2023-04-09T12:45:15;99016.22;;;13.91;53.81
18858;BME280;9558;50.178;8.370;2023-04-09T12:48:02;99011.41;;;13.80;53.17
18858;BME280;9558;50.178;8.370;2023-04-09T12:50:49;99004.84;;;13.69;51.45
18858;BME280;9558;50.178;8.370;2023-04-09T12:53:36;99006.97;;;13.65;52.24
18858;BME280;9558;50.178;8.370;2023-04-09T12:56:23;99004.56;;;13.64;53.24
18858;BME280;9558;50.178;8.370;2023-04-09T12:59:11;99007.63;;;13.68;53.70
18858;BME280;9558;50.178;8.370;2023-04-09T13:01:57;98994.31;;;13.62;53.70
18858;BME280;9558;50.178;8.370;2023-04-09T13:04:44;98993.72;;;13.60;53.03
18858;BME280;9558;50.178;8.370;2023-04-09T13:07:31;98994.63;;;13.68;54.36
18858;BME280;9558;50.178;8.370;2023-04-09T13:10:18;98993.25;;;13.72;54.44
18858;BME280;9558;50.178;8.370;2023-04-09T13:13:05;98990.59;;;13.80;54.79
18858;BME280;9558;50.178;8.370;2023-04-09T13:15:57;98988.91;;;13.87;54.37
18858;BME280;9558;50.178;8.370;2023-04-09T13:18:44;98982.19;;;13.78;52.83
18858;BME280;9558;50.178;8.370;2023-04-09T13:21:31;98990.50;;;13.73;52.28
18858;BME280;9558;50.178;8.370;2023-04-09T13:24:18;98992.28;;;13.73;53.38
18858;BME280;9558;50.178;8.370;2023-04-09T13:27:05;98995.25;;;13.70;53.19
18858;BME280;9558;50.178;8.370;2023-04-09T13:29:53;98987.63;;;13.68;52.78
18858;BME280;9558;50.178;8.370;2023-04-09T13:32:42;98979.81;;;13.68;52.12
18858;BME280;9558;50.178;8.370;2023-04-09T13:35:29;98984.72;;;13.63;52.16
18858;BME280;9558;50.178;8.370;2023-04-09T13:38:16;98983.31;;;13.60;51.95
18858;BME280;9558;50.178;8.370;2023-04-09T13:41:03;98985.06;;;13.60;52.13
18858;BME280;9558;50.178;8.370;2023-04-09T13:43:50;98986.94;;;13.51;50.64
18858;BME280;9558;50.178;8.370;2023-04-09T13:46:37;98968.44;;;13.46;51.03
18858;BME280;9558;50.178;8.370;2023-04-09T13:49:25;98964.06;;;13.46;51.84
18858;BME280;9558;50.178;8.370;2023-04-09T13:52:12;98962.00;;;13.42;53.07
18858;BME280;9558;50.178;8.370;2023-04-09T13:54:59;98966.47;;;13.48;51.82
18858;BME280;9558;50.178;8.370;2023-04-09T13:57:48;98960.56;;;13.54;52.48
18858;BME280;9558;50.178;8.370;2023-04-09T14:00:35;98955.53;;;13.53;50.78
18858;BME280;9558;50.178;8.370;2023-04-09T14:03:21;98947.63;;;13.46;52.14
18858;BME280;9558;50.178;8.370;2023-04-09T14:06:09;98948.91;;;13.50;51.25
18858;BME280;9558;50.178;8.370;2023-04-09T14:08:58;98954.09;;;13.50;51.17
18858;BME280;9558;50.178;8.370;2023-04-09T14:11:45;98950.41;;;13.44;50.97
18858;BME280;9558;50.178;8.370;2023-04-09T14:14:31;98944.06;;;13.47;51.17
18858;BME280;9558;50.178;8.370;2023-04-09T14:17:18;98940.81;;;13.45;49.99
18858;BME280;9558;50.178;8.370;2023-04-09T14:20:06;98943.94;;;13.40;50.27
18858;BME280;9558;50.178;8.370;2023-04-09T14:22:54;98943.66;;;13.35;51.07
18858;BME280;9558;50.178;8.370;2023-04-09T14:25:41;98934.56;;;13.31;50.55
18858;BME280;9558;50.178;8.370;2023-04-09T14:28:28;98929.72;;;13.28;51.83
18858;BME280;9558;50.178;8.370;2023-04-09T14:31:14;98925.28;;;13.37;51.28
18858;BME280;9558;50.178;8.370;2023-04-09T14:34:04;98927.19;;;13.43;50.97
18858;BME280;9558;50.178;8.370;2023-04-09T14:36:51;98928.44;;;13.47;50.76
18858;BME280;9558;50.178;8.370;2023-04-09T14:39:39;98933.94;;;13.52;50.97
18858;BME280;9558;50.178;8.370;2023-04-09T14:42:26;98933.41;;;13.57;50.54
18858;BME280;9558;50.178;8.370;2023-04-09T14:45:13;98928.69;;;13.60;50.37
18858;BME280;9558;50.178;8.370;2023-04-09T14:48:00;98930.28;;;13.61;50.88
18858;BME280;9558;50.178;8.370;2023-04-09T14:50:47;98929.00;;;13.57;50.17
18858;BME280;9558;50.178;8.370;2023-04-09T14:53:35;98927.25;;;13.58;49.38
18858;BME280;9558;50.178;8.370;2023-04-09T14:56:24;98925.44;;;13.58;50.53
18858;BME280;9558;50.178;8.370;2023-04-09T14:59:10;98920.22;;;13.58;51.49
18858;BME280;9558;50.178;8.370;2023-04-09T15:01:57;98905.28;;;13.60;51.95
18858;BME280;9558;50.178;8.370;2023-04-09T15:04:44;98908.78;;;13.68;52.21